Time;durP1;ratioP1;P1;durP2;ratioP2;P2;SDS_P1;SDS_P2;PMS_P1;PMS_P2;Temp;Humidity;BMP_temperature;BMP_pressure;BME280_temperature;BME280_humidity;BME280_pressure;Samples;Min_cycle;Max_cycle;Signal;HPM_P1;HPM_P2
2022/08/09 00:02:14;;;;;;;6.30;5.70;;;13.90;99.90;;;;;;5061659;28;20056;-49
2022/08/09 00:04:40;;;;;;;6.38;5.10;;;13.90;99.90;;;;;;5079628;28;20604;-49
2022/08/09 00:07:05;;;;;;;6.50;5.90;;;13.90;99.90;;;;;;5082055;28;20135;-48
2022/08/09 00:09:31;;;;;;;6.13;5.53;;;13.90;99.90;;;;;;5081453;28;20096;-49
2022/08/09 00:11:57;;;;;;;7.88;6.07;;;13.80;99.90;;;;;;5081302;28;20052;-48
2022/08/09 00:14:23;;;;;;;4.13;3.25;;;13.80;99.90;;;;;;5081760;28;20048;-47
2022/08/09 00:16:49;;;;;;;5.95;4.07;;;13.80;99.90;;;;;;5082745;28;20051;-46
2022/08/09 00:19:15;;;;;;;3.63;3.15;;;13.70;99.90;;;;;;5081898;28;20048;-49
2022/08/09 00:21:41;;;;;;;4.45;3.88;;;13.70;99.90;;;;;;5083083;28;20085;-50
2022/08/09 00:24:07;;;;;;;3.85;3.10;;;13.60;99.90;;;;;;5082212;28;20086;-47
2022/08/09 00:26:33;;;;;;;4.10;3.67;;;13.60;99.90;;;;;;5085126;28;20054;-46
2022/08/09 00:29:00;;;;;;;4.82;3.50;;;13.50;99.90;;;;;;5086456;28;20119;-46
2022/08/09 00:31:27;;;;;;;3.95;3.55;;;13.50;99.90;;;;;;5086221;28;20138;-47
2022/08/09 00:33:54;;;;;;;4.40;3.75;;;13.40;99.90;;;;;;5078002;28;20402;-47
2022/08/09 00:36:21;;;;;;;5.18;4.05;;;13.40;99.90;;;;;;5085616;28;20529;-47
2022/08/09 00:38:47;;;;;;;4.72;4.32;;;13.40;99.90;;;;;;5085852;28;20549;-47
2022/08/09 00:41:13;;;;;;;4.45;4.00;;;13.40;99.90;;;;;;5065841;28;20056;-47
2022/08/09 00:43:39;;;;;;;4.70;4.15;;;13.40;99.90;;;;;;5060432;28;20101;-50
2022/08/09 00:46:07;;;;;;;3.88;2.75;;;13.40;99.90;;;;;;5085059;28;20052;-48
2022/08/09 00:48:33;;;;;;;4.53;3.63;;;13.40;99.90;;;;;;5067049;28;20143;-46
2022/08/09 00:51:05;;;;;;;3.30;2.58;;;13.40;99.90;;;;;;5084874;28;20048;-50
2022/08/09 00:53:32;;;;;;;3.22;2.92;;;13.30;99.90;;;;;;5091285;28;20059;-54
2022/08/09 00:55:58;;;;;;;4.43;2.00;;;13.30;99.90;;;;;;5074962;28;20127;-48
2022/08/09 00:58:24;;;;;;;2.65;2.40;;;13.20;99.90;;;;;;5089221;28;20200;-47
2022/08/09 01:00:53;;;;;;;3.53;2.38;;;13.20;99.90;;;;;;5087408;28;20120;-46
2022/08/09 01:03:40;;;;;;;4.60;3.80;;;13.20;99.90;;;;;;5050427;28;20052;-46
2022/08/09 01:06:28;;;;;;;1.83;1.60;;;13.20;99.90;;;;;;5080871;28;20063;-50
2022/08/09 01:09:10;;;;;;;3.08;2.85;;;13.20;99.90;;;;;;5084973;28;20055;-49
2022/08/09 01:11:45;;;;;;;4.38;3.20;;;13.10;99.90;;;;;;5085259;28;20050;-47
2022/08/09 01:14:27;;;;;;;4.82;4.43;;;13.10;99.90;;;;;;5064565;28;20498;-47
2022/08/09 01:17:01;;;;;;;6.00;4.30;;;13.10;99.90;;;;;;5083076;28;20109;-49
2022/08/09 01:20:03;;;;;;;12.48;5.93;;;13.00;99.90;;;;;;5081129;28;20592;-48
2022/08/09 01:22:51;;;;;;;6.18;5.43;;;13.00;99.90;;;;;;5000497;28;20549;-47
2022/08/09 01:25:46;;;;;;;8.82;4.97;;;13.00;99.90;;;;;;4983321;28;20730;-47
2022/08/09 01:28:13;;;;;;;5.30;4.80;;;13.00;99.90;;;;;;4998510;28;20525;-50
2022/08/09 01:30:41;;;;;;;4.35;3.95;;;12.90;99.90;;;;;;5001340;28;20531;-49
2022/08/09 01:33:08;;;;;;;4.63;3.88;;;12.90;99.90;;;;;;5005180;28;20057;-49
2022/08/09 01:35:52;;;;;;;23.35;4.65;;;13.00;99.90;;;;;;4987622;28;20104;-48
2022/08/09 01:38:29;;;;;;;4.55;3.63;;;13.00;99.90;;;;;;4963513;28;20540;-45
2022/08/09 01:41:19;;;;;;;6.43;4.03;;;13.00;99.90;;;;;;5001643;28;20053;-47
2022/08/09 01:43:49;;;;;;;5.57;4.82;;;13.10;99.90;;;;;;5001682;28;20049;-46
2022/08/09 01:46:18;;;;;;;6.15;5.20;;;13.10;99.90;;;;;;5001073;28;20149;-47
2022/08/09 01:48:45;;;;;;;5.45;4.93;;;13.10;99.90;;;;;;4979234;28;20132;-47
2022/08/09 01:51:13;;;;;;;13.38;4.43;;;13.10;99.90;;;;;;5001395;28;20062;-47
2022/08/09 01:53:40;;;;;;;3.00;2.70;;;13.00;99.90;;;;;;5001058;28;20073;-47
2022/08/09 01:56:08;;;;;;;2.88;2.67;;;13.00;99.90;;;;;;4993617;28;20053;-49
2022/08/09 01:58:36;;;;;;;3.70;2.83;;;12.90;99.90;;;;;;5017394;28;20052;-46
2022/08/09 02:01:03;;;;;;;4.70;3.30;;;12.90;99.90;;;;;;5042383;28;20059;-47
2022/08/09 02:03:32;;;;;;;2.80;2.40;;;12.90;99.90;;;;;;5043743;28;20056;-48
2022/08/09 02:06:01;;;;;;;2.28;1.67;;;12.80;99.90;;;;;;5031944;28;20849;-50
2022/08/09 02:08:30;;;;;;;2.00;1.52;;;12.80;99.90;;;;;;5059456;28;20052;-47
2022/08/09 02:10:57;;;;;;;1.60;1.40;;;12.80;99.90;;;;;;5043861;28;20064;-48
2022/08/09 02:13:28;;;;;;;3.50;2.10;;;12.70;99.90;;;;;;5044833;28;20048;-47
2022/08/09 02:15:56;;;;;;;5.47;2.47;;;12.70;99.90;;;;;;5038163;28;20439;-46
2022/08/09 02:18:29;;;;;;;3.95;2.00;;;12.60;99.90;;;;;;5041718;28;20088;-50
2022/08/09 02:20:58;;;;;;;3.25;2.00;;;12.60;99.90;;;;;;5039649;28;20507;-46
2022/08/09 02:23:33;;;;;;;2.20;1.88;;;12.60;99.90;;;;;;5041513;28;20048;-50
2022/08/09 02:26:01;;;;;;;3.22;2.83;;;12.50;99.90;;;;;;5054939;28;20053;-46
2022/08/09 02:28:39;;;;;;;8.35;4.18;;;12.50;99.90;;;;;;5041848;28;20070;-49
2022/08/09 02:31:10;;;;;;;4.07;2.47;;;12.50;99.90;;;;;;5066420;28;20067;-46
2022/08/09 02:33:42;;;;;;;4.30;3.25;;;12.50;99.90;;;;;;5082778;28;20414;-50
2022/08/09 02:36:17;;;;;;;7.22;3.63;;;12.50;99.90;;;;;;5082112;28;20097;-47
2022/08/09 02:38:56;;;;;;;13.68;5.13;;;12.50;99.90;;;;;;5062823;28;20056;-48
2022/08/09 02:41:30;;;;;;;23.33;5.00;;;12.50;99.90;;;;;;5082629;28;20501;-47
2022/08/09 02:44:01;;;;;;;4.95;4.38;;;12.50;99.90;;;;;;5083445;28;20513;-46
2022/08/09 02:46:28;;;;;;;4.80;4.30;;;12.50;99.90;;;;;;5082743;28;20101;-51
2022/08/09 02:48:57;;;;;;;5.32;4.80;;;12.60;99.90;;;;;;5083654;28;20090;-46
2022/08/09 02:51:26;;;;;;;16.67;4.32;;;12.60;99.90;;;;;;5061343;28;20067;-47
2022/08/09 02:53:56;;;;;;;43.40;5.60;;;12.60;99.90;;;;;;5083241;28;20127;-50
2022/08/09 02:56:24;;;;;;;22.15;4.60;;;12.60;99.90;;;;;;5083022;28;20051;-48
2022/08/09 02:58:51;;;;;;;4.20;2.95;;;12.50;99.90;;;;;;5085593;28;20383;-51
2022/08/09 03:01:19;;;;;;;5.25;2.83;;;12.50;99.90;;;;;;5083046;28;20512;-50
2022/08/09 03:03:46;;;;;;;21.30;2.58;;;12.50;99.90;;;;;;5063387;28;20143;-46
2022/08/09 03:06:14;;;;;;;21.58;3.25;;;12.50;99.90;;;;;;5083001;28;20054;-46
2022/08/09 03:08:45;;;;;;;23.15;3.45;;;12.50;99.90;;;;;;5082866;28;20126;-48
2022/08/09 03:11:17;;;;;;;13.10;3.30;;;12.50;99.90;;;;;;5083037;28;20067;-48
2022/08/09 03:13:45;;;;;;;4.18;3.78;;;12.50;99.90;;;;;;5082944;28;20056;-47
2022/08/09 03:16:13;;;;;;;5.43;3.63;;;12.50;99.90;;;;;;5060465;28;20156;-48
2022/08/09 03:18:44;;;;;;;6.57;4.13;;;12.50;99.90;;;;;;5079606;28;20047;-46
2022/08/09 03:21:10;;;;;;;6.28;4.03;;;12.50;99.90;;;;;;5081981;28;20044;-50
2022/08/09 03:23:38;;;;;;;6.90;3.58;;;12.50;99.90;;;;;;5082109;28;20135;-49
2022/08/09 03:26:04;;;;;;;16.95;4.55;;;12.50;99.90;;;;;;5081357;28;20055;-46
2022/08/09 03:28:32;;;;;;;3.83;3.42;;;12.60;99.90;;;;;;5082048;28;20051;-46
2022/08/09 03:30:59;;;;;;;4.35;3.67;;;12.60;99.90;;;;;;5082462;28;20413;-48
2022/08/09 03:33:25;;;;;;;5.35;3.47;;;12.60;99.90;;;;;;5082633;28;20066;-53
2022/08/09 03:35:52;;;;;;;3.50;3.17;;;12.60;99.90;;;;;;5082006;28;20052;-46
2022/08/09 03:38:18;;;;;;;4.38;3.58;;;12.60;99.90;;;;;;5064335;28;20051;-48
2022/08/09 03:40:44;;;;;;;4.45;3.38;;;12.60;99.90;;;;;;5047047;28;20135;-48
2022/08/09 03:43:10;;;;;;;5.03;3.53;;;12.60;99.90;;;;;;5081849;28;20528;-47
2022/08/09 03:45:36;;;;;;;7.30;3.13;;;12.60;99.90;;;;;;5081766;28;20052;-48
2022/08/09 03:48:02;;;;;;;3.78;2.90;;;12.60;99.90;;;;;;5082332;28;20079;-48
2022/08/09 03:50:31;;;;;;;4.85;2.80;;;12.60;99.90;;;;;;5082309;28;20048;-48
2022/08/09 03:53:01;;;;;;;4.15;2.55;;;12.50;99.90;;;;;;5081425;28;20048;-47
2022/08/09 03:55:27;;;;;;;5.00;2.85;;;12.40;99.90;;;;;;5081203;28;20471;-48
2022/08/09 03:57:53;;;;;;;3.97;2.60;;;12.30;99.90;;;;;;5083159;28;20130;-47
2022/08/09 04:00:19;;;;;;;3.45;2.40;;;12.30;99.90;;;;;;5060909;28;20655;-47
2022/08/09 04:02:46;;;;;;;3.55;3.20;;;12.30;99.90;;;;;;5061117;28;20070;-46
2022/08/09 04:05:13;;;;;;;8.20;3.92;;;12.30;99.90;;;;;;5077304;28;20044;-47
2022/08/09 04:07:40;;;;;;;4.22;3.33;;;12.30;99.90;;;;;;5081768;28;20055;-49
2022/08/09 04:10:06;;;;;;;6.07;2.95;;;12.30;99.90;;;;;;5082150;28;20509;-47
2022/08/09 04:12:50;;;;;;;10.50;4.85;;;12.30;99.90;;;;;;5081005;28;20063;-47
2022/08/09 04:15:17;;;;;;;4.50;4.10;;;12.40;99.90;;;;;;5077286;28;20056;-48
2022/08/09 04:17:43;;;;;;;5.00;2.97;;;12.30;99.90;;;;;;5082100;28;20044;-48
2022/08/09 04:20:11;;;;;;;3.55;2.67;;;12.30;99.90;;;;;;5081989;28;20437;-48
2022/08/09 04:22:37;;;;;;;2.30;2.10;;;12.30;99.90;;;;;;5081972;28;20044;-46
2022/08/09 04:25:04;;;;;;;4.38;2.72;;;12.30;99.90;;;;;;5080638;28;20048;-47
2022/08/09 04:27:39;;;;;;;2.75;2.28;;;12.30;99.90;;;;;;5081141;28;20115;-47
2022/08/09 04:30:13;;;;;;;3.25;2.60;;;12.30;99.90;;;;;;5081074;28;20067;-48
2022/08/09 04:32:40;;;;;;;4.15;2.60;;;12.20;99.90;;;;;;5082066;28;20575;-46
2022/08/09 04:35:09;;;;;;;4.53;2.45;;;12.20;99.90;;;;;;5063139;28;20051;-48
2022/08/09 04:37:35;;;;;;;2.88;2.28;;;12.20;99.90;;;;;;5077537;28;20417;-47
2022/08/09 04:40:02;;;;;;;4.60;2.15;;;12.30;99.90;;;;;;5059413;28;20068;-50
2022/08/09 04:42:29;;;;;;;2.72;2.10;;;12.30;99.90;;;;;;5057514;28;20149;-50
2022/08/09 04:44:56;;;;;;;4.72;1.98;;;12.30;99.90;;;;;;5081310;28;20067;-46
2022/08/09 04:47:23;;;;;;;3.95;2.80;;;12.30;99.90;;;;;;5080620;28;20048;-47
2022/08/09 04:49:50;;;;;;;3.17;2.55;;;12.40;99.90;;;;;;5063777;28;20056;-51
2022/08/09 04:52:16;;;;;;;4.50;4.07;;;12.50;99.90;;;;;;5060965;28;20056;-48
2022/08/09 04:54:41;;;;;;;4.38;3.42;;;12.50;99.90;;;;;;5083195;28;21006;-47
2022/08/09 04:57:07;;;;;;;4.28;3.13;;;12.60;99.90;;;;;;5084108;28;20824;-46
2022/08/09 04:59:33;;;;;;;3.63;3.33;;;12.80;99.90;;;;;;5063787;28;20056;-46
2022/08/09 05:01:59;;;;;;;3.20;2.65;;;13.20;99.90;;;;;;5059712;28;20056;-48
2022/08/09 05:04:25;;;;;;;7.45;2.55;;;13.70;99.90;;;;;;5062678;28;20044;-49
2022/08/09 05:06:51;;;;;;;3.40;2.40;;;14.30;99.90;;;;;;5065645;28;20052;-45
2022/08/09 05:09:17;;;;;;;3.38;2.53;;;14.80;99.90;;;;;;5061977;28;20535;-49
2022/08/09 05:11:43;;;;;;;2.25;2.05;;;15.30;99.90;;;;;;5078468;28;20051;-47
2022/08/09 05:14:09;;;;;;;4.00;2.83;;;15.90;99.90;;;;;;5056999;28;20048;-51
2022/08/09 05:16:35;;;;;;;2.85;2.53;;;16.80;99.90;;;;;;5065639;28;20052;-46
2022/08/09 05:19:01;;;;;;;4.32;3.42;;;17.70;99.90;;;;;;5083719;28;20075;-46
2022/08/09 05:21:27;;;;;;;3.63;3.28;;;18.50;99.90;;;;;;5066166;28;20059;-49
2022/08/09 05:23:54;;;;;;;3.67;3.38;;;19.30;99.90;;;;;;5066175;28;20051;-49
2022/08/09 05:26:20;;;;;;;3.53;3.22;;;20.20;99.90;;;;;;5084619;28;20147;-47
2022/08/09 05:28:45;;;;;;;4.03;3.72;;;21.00;99.90;;;;;;5087062;28;20126;-48
2022/08/09 05:31:11;;;;;;;4.10;3.80;;;21.50;99.90;;;;;;5084680;28;20151;-48
2022/08/09 05:33:37;;;;;;;4.18;3.50;;;22.10;99.90;;;;;;5086471;28;20504;-50
2022/08/09 05:36:03;;;;;;;3.92;3.30;;;22.60;99.90;;;;;;5065056;28;20048;-47
2022/08/09 05:38:30;;;;;;;3.97;3.60;;;23.40;99.90;;;;;;5083910;28;20048;-49
2022/08/09 05:40:56;;;;;;;4.75;4.30;;;24.20;99.90;;;;;;5084066;28;20056;-50
2022/08/09 05:43:22;;;;;;;3.90;3.60;;;24.90;99.70;;;;;;5084414;28;20429;-52
2022/08/09 05:45:48;;;;;;;4.55;3.95;;;25.20;98.80;;;;;;5085197;28;20048;-47
2022/08/09 05:48:14;;;;;;;4.93;4.05;;;25.70;98.30;;;;;;5064355;28;20102;-47
2022/08/09 05:50:42;;;;;;;5.00;4.50;;;26.10;98.00;;;;;;5062927;28;20121;-49
2022/08/09 05:53:09;;;;;;;4.95;4.32;;;26.30;96.20;;;;;;5064701;28;20112;-50
2022/08/09 05:55:41;;;;;;;4.78;4.38;;;26.40;95.80;;;;;;5083233;28;20478;-47
2022/08/09 05:58:07;;;;;;;5.10;4.40;;;26.50;96.00;;;;;;5066357;28;20101;-48
2022/08/09 06:00:33;;;;;;;5.20;4.30;;;26.50;96.30;;;;;;5083968;28;20072;-47
2022/08/09 06:03:01;;;;;;;4.93;4.53;;;27.00;96.80;;;;;;5084001;28;20546;-48
2022/08/09 06:05:29;;;;;;;5.95;5.10;;;27.70;96.20;;;;;;5083784;28;20048;-50
2022/08/09 06:07:55;;;;;;;5.20;4.78;;;27.80;95.00;;;;;;5083498;28;20056;-50
2022/08/09 06:10:36;;;;;;;5.95;5.40;;;27.70;94.90;;;;;;5064043;28;20053;-50
2022/08/09 06:13:11;;;;;;;5.70;4.60;;;28.30;95.60;;;;;;5083712;28;20357;-47
2022/08/09 06:15:38;;;;;;;5.55;5.00;;;28.90;94.40;;;;;;5082176;28;20493;-47
2022/08/09 06:18:04;;;;;;;5.97;4.65;;;28.90;94.20;;;;;;5083142;28;20072;-48
2022/08/09 06:20:31;;;;;;;4.10;3.78;;;29.10;94.60;;;;;;5083162;28;20040;-49
2022/08/09 06:22:57;;;;;;;4.82;4.35;;;29.40;93.90;;;;;;5082917;28;20113;-49
2022/08/09 06:25:23;;;;;;;6.45;4.60;;;29.90;94.30;;;;;;5061785;28;20523;-50
2022/08/09 06:27:49;;;;;;;4.32;3.92;;;30.10;93.60;;;;;;5066891;28;20054;-48
2022/08/09 06:30:15;;;;;;;5.57;4.10;;;30.30;93.30;;;;;;5083507;28;20064;-48
2022/08/09 06:32:42;;;;;;;6.55;4.50;;;30.60;92.30;;;;;;5083172;28;20064;-48
2022/08/09 06:35:09;;;;;;;10.23;5.03;;;30.60;92.80;;;;;;5083050;28;20056;-48
2022/08/09 06:37:37;;;;;;;6.88;4.75;;;31.00;92.90;;;;;;5083442;28;20067;-50
2022/08/09 06:40:04;;;;;;;5.22;3.90;;;31.30;92.30;;;;;;5081987;28;20113;-49
2022/08/09 06:42:30;;;;;;;5.43;3.65;;;31.20;92.00;;;;;;5083086;28;20148;-49
2022/08/09 06:44:57;;;;;;;3.97;3.60;;;31.40;92.00;;;;;;5063404;28;20134;-50
2022/08/09 06:47:23;;;;;;;5.00;3.50;;;31.00;91.60;;;;;;5061172;28;20048;-52
2022/08/09 06:49:49;;;;;;;4.60;3.08;;;31.20;91.80;;;;;;5082207;28;20048;-50
2022/08/09 06:52:15;;;;;;;3.97;3.28;;;31.00;92.10;;;;;;5082351;28;20051;-50
2022/08/09 06:54:42;;;;;;;5.85;3.30;;;31.20;92.00;;;;;;5059547;28;20101;-50
2022/08/09 06:57:08;;;;;;;4.78;2.75;;;31.20;91.30;;;;;;5077919;28;20039;-48
2022/08/09 06:59:34;;;;;;;4.13;2.20;;;31.10;91.10;;;;;;5083655;28;20040;-48
2022/08/09 07:02:00;;;;;;;4.47;2.38;;;31.80;91.50;;;;;;5064017;28;20055;-48
2022/08/09 07:04:25;;;;;;;3.47;2.50;;;32.00;91.20;;;;;;5061534;28;20049;-50
2022/08/09 07:06:51;;;;;;;4.10;2.55;;;31.80;90.30;;;;;;5060499;28;20530;-52
2022/08/09 07:09:23;;;;;;;3.70;2.22;;;32.00;90.50;;;;;;5082772;28;20048;-53
2022/08/09 07:11:49;;;;;;;3.55;2.28;;;31.70;90.30;;;;;;5081811;28;20043;-50
2022/08/09 07:14:16;;;;;;;5.10;2.30;;;30.30;91.30;;;;;;5081471;28;20048;-52
2022/08/09 07:16:46;;;;;;;5.72;2.08;;;29.40;91.90;;;;;;5082278;28;20059;-53
2022/08/09 07:19:12;;;;;;;3.38;2.17;;;28.50;92.20;;;;;;5083360;28;20415;-51
2022/08/09 07:21:39;;;;;;;3.83;1.80;;;28.70;92.20;;;;;;5079834;28;20036;-50
2022/08/09 07:24:05;;;;;;;4.00;1.77;;;28.30;92.30;;;;;;5081297;28;20104;-50
2022/08/09 07:26:32;;;;;;;2.88;1.60;;;27.80;92.60;;;;;;5081749;28;20048;-53
2022/08/09 07:28:58;;;;;;;4.20;1.85;;;27.10;93.20;;;;;;5062882;28;20052;-52
2022/08/09 07:31:24;;;;;;;4.63;2.30;;;26.70;93.80;;;;;;5082240;28;20791;-48
2022/08/09 07:33:50;;;;;;;5.63;2.00;;;26.40;93.60;;;;;;5062114;28;20056;-49
2022/08/09 07:36:16;;;;;;;3.90;1.60;;;26.10;94.00;;;;;;5060922;28;20044;-48
2022/08/09 07:38:42;;;;;;;3.55;1.90;;;25.90;94.80;;;;;;5080609;28;20055;-48
2022/08/09 07:41:08;;;;;;;3.78;1.95;;;25.70;94.70;;;;;;5080812;28;20098;-48
2022/08/09 07:43:34;;;;;;;2.65;1.75;;;25.50;94.90;;;;;;5079678;28;20047;-49
2022/08/09 07:45:59;;;;;;;4.47;1.83;;;25.50;95.10;;;;;;5079958;28;20051;-50
2022/08/09 07:48:25;;;;;;;3.13;1.80;;;25.30;95.20;;;;;;5080763;28;20437;-49
2022/08/09 07:50:51;;;;;;;2.75;1.70;;;25.10;95.70;;;;;;5081338;28;20056;-51
2022/08/09 07:53:17;;;;;;;3.20;1.48;;;25.10;96.20;;;;;;5079921;28;20055;-52
2022/08/09 07:55:42;;;;;;;2.72;1.88;;;25.00;95.60;;;;;;5079567;28;20150;-51
2022/08/09 07:58:08;;;;;;;3.40;2.00;;;25.00;96.20;;;;;;5083015;28;20044;-52
2022/08/09 08:00:34;;;;;;;3.75;1.63;;;24.90;96.20;;;;;;5080655;28;20044;-51
2022/08/09 08:03:00;;;;;;;3.75;1.98;;;24.90;96.10;;;;;;5080674;28;20050;-52
2022/08/09 08:05:26;;;;;;;2.78;1.95;;;24.80;96.20;;;;;;5079239;28;20054;-50
2022/08/09 08:07:53;;;;;;;3.55;1.80;;;24.70;95.90;;;;;;5080457;28;20044;-51
2022/08/09 08:10:20;;;;;;;3.03;1.73;;;24.70;95.80;;;;;;5079925;28;20060;-53
2022/08/09 08:12:47;;;;;;;4.38;1.60;;;24.70;96.30;;;;;;5080234;28;20276;-54
2022/08/09 08:15:16;;;;;;;2.72;1.55;;;24.50;95.90;;;;;;5078516;28;20565;-50
2022/08/09 08:17:42;;;;;;;3.15;1.67;;;24.40;96.10;;;;;;5079249;28;20048;-50
2022/08/09 08:20:08;;;;;;;1.98;1.38;;;24.40;96.60;;;;;;5061364;28;20056;-54
2022/08/09 08:22:34;;;;;;;3.17;1.38;;;24.40;96.50;;;;;;5080031;28;20048;-52
2022/08/09 08:25:00;;;;;;;2.45;1.65;;;24.60;96.40;;;;;;5079569;28;20055;-54
2022/08/09 08:27:25;;;;;;;3.45;1.23;;;24.60;95.50;;;;;;5058864;28;20052;-54
2022/08/09 08:29:52;;;;;;;4.00;1.25;;;24.40;95.80;;;;;;5077397;28;20048;-53
2022/08/09 08:32:21;;;;;;;1.98;1.17;;;24.40;96.00;;;;;;5080689;28;20056;-52
2022/08/09 08:34:47;;;;;;;4.18;1.60;;;24.60;96.10;;;;;;5080011;28;20093;-53
2022/08/09 08:37:13;;;;;;;3.63;1.20;;;24.70;95.80;;;;;;5082442;28;20440;-53
2022/08/09 08:39:38;;;;;;;3.42;1.63;;;24.80;96.20;;;;;;5067843;28;20056;-53
2022/08/09 08:42:05;;;;;;;2.15;1.50;;;24.90;96.10;;;;;;5065912;28;20056;-56
2022/08/09 08:44:35;;;;;;;2.08;1.38;;;24.80;95.30;;;;;;5063920;28;20809;-50
2022/08/09 08:47:01;;;;;;;2.65;1.30;;;24.70;95.50;;;;;;5082299;28;20062;-54
2022/08/09 08:49:33;;;;;;;1.58;1.05;;;24.70;95.10;;;;;;5085124;28;20071;-53
2022/08/09 08:51:58;;;;;;;2.50;1.10;;;24.70;95.40;;;;;;5066937;28;20079;-53
2022/08/09 08:54:25;;;;;;;1.92;1.13;;;24.80;95.50;;;;;;5065204;28;20051;-54
2022/08/09 08:56:51;;;;;;;3.28;1.70;;;24.80;95.10;;;;;;5085887;28;20047;-57
2022/08/09 08:59:18;;;;;;;3.63;1.13;;;24.80;95.60;;;;;;5083607;28;20133;-53
2022/08/09 09:01:46;;;;;;;2.95;1.35;;;24.80;95.40;;;;;;5065068;28;20117;-52
2022/08/09 09:04:12;;;;;;;1.98;1.00;;;24.90;94.80;;;;;;5083055;28;20043;-52
2022/08/09 09:06:41;;;;;;;2.85;1.08;;;24.90;94.90;;;;;;5082558;28;20101;-53
2022/08/09 09:09:08;;;;;;;4.05;1.45;;;25.00;95.20;;;;;;5079587;28;20515;-53
2022/08/09 09:11:35;;;;;;;1.73;1.10;;;25.20;94.90;;;;;;5061334;28;20048;-55
2022/08/09 09:14:18;;;;;;;3.30;1.23;;;25.40;94.90;;;;;;5082345;28;20267;-53
2022/08/09 09:16:47;;;;;;;3.00;1.20;;;25.50;95.00;;;;;;5082996;28;20098;-53
2022/08/09 09:19:13;;;;;;;3.00;1.08;;;25.60;94.70;;;;;;5082053;28;20497;-54
2022/08/09 09:22:08;;;;;;;3.08;1.25;;;25.80;94.70;;;;;;5064613;28;20052;-53
2022/08/09 09:24:37;;;;;;;2.38;1.13;;;25.90;94.60;;;;;;5063563;28;20052;-54
2022/08/09 09:27:04;;;;;;;2.97;1.20;;;25.70;93.50;;;;;;5082438;28;20481;-55
2022/08/09 09:29:31;;;;;;;3.58;1.25;;;25.50;94.00;;;;;;5082738;28;20110;-56
2022/08/09 09:31:58;;;;;;;2.88;1.30;;;25.30;94.30;;;;;;5052156;28;20106;-54
2022/08/09 09:34:23;;;;;;;1.52;0.90;;;25.30;94.60;;;;;;5063247;28;20102;-55
2022/08/09 09:36:49;;;;;;;2.15;0.90;;;25.20;94.80;;;;;;5061003;28;20462;-55
2022/08/09 09:39:17;;;;;;;2.00;1.00;;;25.30;94.70;;;;;;5061507;28;20040;-54
2022/08/09 09:41:43;;;;;;;2.72;1.00;;;25.40;95.10;;;;;;5062394;28;20396;-55
2022/08/09 09:44:09;;;;;;;2.70;1.35;;;25.40;94.90;;;;;;5063895;28;20462;-55
2022/08/09 09:46:38;;;;;;;2.25;1.20;;;25.40;94.90;;;;;;5062646;28;20052;-54
2022/08/09 09:49:12;;;;;;;2.78;1.08;;;25.50;94.90;;;;;;5060349;28;20053;-56
2022/08/09 09:51:39;;;;;;;1.95;1.17;;;25.70;94.20;;;;;;5062732;28;20057;-55
2022/08/09 09:54:11;;;;;;;3.75;1.27;;;25.60;94.80;;;;;;5062315;28;20087;-56
2022/08/09 09:56:41;;;;;;;1.77;1.03;;;25.70;94.50;;;;;;5063215;28;20072;-55
2022/08/09 09:59:09;;;;;;;3.30;1.23;;;25.40;94.80;;;;;;5064802;28;20390;-57
2022/08/09 10:01:36;;;;;;;2.20;1.13;;;25.40;94.70;;;;;;5061975;28;20415;-56
2022/08/09 10:04:03;;;;;;;2.60;1.08;;;25.20;95.00;;;;;;5062029;28;20530;-56
2022/08/09 10:06:40;;;;;;;2.00;1.05;;;25.20;94.90;;;;;;5058988;28;20057;-55
2022/08/09 10:09:07;;;;;;;1.88;1.13;;;25.30;94.60;;;;;;5066051;28;20368;-55
2022/08/09 10:11:34;;;;;;;2.80;1.50;;;25.20;94.50;;;;;;5062574;28;20111;-57
2022/08/09 10:14:00;;;;;;;0.90;0.77;;;25.30;94.40;;;;;;5061454;28;20059;-58
2022/08/09 10:16:35;;;;;;;3.00;1.10;;;25.40;94.60;;;;;;5059919;28;20052;-55
2022/08/09 10:19:06;;;;;;;2.42;1.10;;;25.50;94.40;;;;;;5061522;28;20109;-56
2022/08/09 10:21:33;;;;;;;2.33;1.00;;;25.60;94.60;;;;;;5058102;28;20136;-56
2022/08/09 10:24:00;;;;;;;1.70;0.95;;;25.70;94.50;;;;;;5060294;28;20075;-55
2022/08/09 10:26:27;;;;;;;3.17;1.10;;;25.90;94.90;;;;;;5061264;28;20052;-57
2022/08/09 10:28:54;;;;;;;3.00;1.08;;;25.80;93.90;;;;;;5061299;28;20101;-56
2022/08/09 10:31:20;;;;;;;1.20;0.90;;;25.80;94.30;;;;;;5073569;28;20596;-56
2022/08/09 10:33:47;;;;;;;2.33;1.10;;;25.70;94.30;;;;;;5062560;28;20044;-56
2022/08/09 10:36:14;;;;;;;1.85;0.98;;;25.60;94.70;;;;;;5081939;28;20050;-56
2022/08/09 10:38:42;;;;;;;2.45;1.08;;;25.60;94.70;;;;;;5081911;28;20529;-55
2022/08/09 10:41:08;;;;;;;1.48;1.00;;;25.50;94.80;;;;;;5062273;28;20055;-55
2022/08/09 10:43:36;;;;;;;2.03;1.17;;;25.50;94.60;;;;;;5061181;28;20048;-57
2022/08/09 10:46:23;;;;;;;2.05;1.15;;;25.70;94.80;;;;;;5062339;28;20498;-56
2022/08/09 10:48:59;;;;;;;3.78;1.30;;;25.80;94.50;;;;;;5082910;28;20406;-56
2022/08/09 10:51:25;;;;;;;2.17;1.00;;;25.70;94.20;;;;;;5081368;28;20048;-57
2022/08/09 10:54:12;;;;;;;3.67;1.10;;;25.70;94.40;;;;;;5080073;28;20398;-57
2022/08/09 10:56:40;;;;;;;3.42;0.98;;;25.60;94.70;;;;;;5081495;28;20491;-56
2022/08/09 10:59:24;;;;;;;1.38;1.20;;;25.50;94.90;;;;;;5083168;28;20048;-57
2022/08/09 11:01:53;;;;;;;5.18;1.20;;;25.20;95.30;;;;;;5079820;28;20128;-56
2022/08/09 11:04:30;;;;;;;2.63;1.20;;;25.10;95.30;;;;;;5062577;28;20101;-58
2022/08/09 11:06:58;;;;;;;7.72;1.42;;;25.20;95.00;;;;;;5062635;28;20056;-57
2022/08/09 11:09:36;;;;;;;3.95;1.15;;;25.40;95.80;;;;;;5081755;28;20059;-57
2022/08/09 11:12:23;;;;;;;4.78;1.63;;;25.50;95.10;;;;;;5062513;28;20052;-56
2022/08/09 11:14:56;;;;;;;2.50;1.33;;;25.30;94.80;;;;;;5074268;28;20094;-57
2022/08/09 11:17:41;;;;;;;4.40;1.35;;;25.50;95.20;;;;;;5081091;28;20044;-56
2022/08/09 11:20:12;;;;;;;2.35;1.02;;;25.40;95.20;;;;;;5081619;28;20052;-56
2022/08/09 11:22:43;;;;;;;1.65;1.10;;;25.50;95.60;;;;;;5081149;28;20129;-56
2022/08/09 11:25:32;;;;;;;6.05;2.05;;;25.30;95.10;;;;;;5081062;28;20396;-55
2022/08/09 11:27:58;;;;;;;20.85;2.00;;;25.30;94.90;;;;;;5081718;28;20050;-54
2022/08/09 11:30:25;;;;;;;2.67;1.10;;;25.30;95.10;;;;;;5065119;28;20590;-56
2022/08/09 11:33:00;;;;;;;1.95;1.10;;;25.50;95.20;;;;;;5080952;28;20534;-56
2022/08/09 11:35:41;;;;;;;2.75;1.67;;;25.30;94.80;;;;;;5081348;28;20044;-56
2022/08/09 11:38:21;;;;;;;7.47;1.35;;;24.90;95.40;;;;;;5080575;28;20052;-56
2022/08/09 11:40:48;;;;;;;3.15;1.02;;;24.80;95.20;;;;;;5053883;28;20136;-56
2022/08/09 11:43:16;;;;;;;1.83;1.00;;;24.80;95.20;;;;;;5082168;28;20043;-55
2022/08/09 11:45:53;;;;;;;2.13;0.90;;;25.00;95.50;;;;;;5081126;28;20044;-57
2022/08/09 11:48:27;;;;;;;3.03;1.20;;;25.30;95.60;;;;;;5080282;28;20052;-57
2022/08/09 11:51:03;;;;;;;1.50;1.27;;;25.30;94.60;;;;;;5080341;28;20055;-56
2022/08/09 11:53:34;;;;;;;3.80;1.30;;;25.30;95.10;;;;;;5079904;28;20044;-55
2022/08/09 11:56:25;;;;;;;3.17;1.05;;;25.50;95.20;;;;;;5062397;28;20083;-56
2022/08/09 11:58:59;;;;;;;2.83;1.10;;;25.10;95.30;;;;;;5079989;28;20495;-57
2022/08/09 12:01:42;;;;;;;5.55;2.50;;;25.50;96.60;;;;;;5081843;28;20044;-56
2022/08/09 12:04:13;;;;;;;2.00;1.10;;;25.60;95.80;;;;;;5080675;28;20052;-56
2022/08/09 12:06:48;;;;;;;1.48;1.00;;;25.60;95.30;;;;;;5082071;28;20051;-57
2022/08/09 12:09:14;;;;;;;2.60;1.33;;;25.80;94.90;;;;;;5080446;28;20039;-56
2022/08/09 12:11:40;;;;;;;3.58;1.00;;;26.10;95.40;;;;;;5064372;28;20139;-54
2022/08/09 12:14:09;;;;;;;32.70;3.65;;;26.00;94.70;;;;;;5075560;28;20040;-56
2022/08/09 12:16:47;;;;;;;5.65;1.92;;;26.00;94.80;;;;;;5087769;28;20573;-57
2022/08/09 12:19:12;;;;;;;1.77;1.00;;;25.60;95.10;;;;;;5079649;28;20048;-56
2022/08/09 12:21:46;;;;;;;2.88;1.30;;;25.30;94.80;;;;;;5064498;28;20057;-57
2022/08/09 12:24:20;;;;;;;4.38;1.40;;;25.20;95.00;;;;;;5082513;28;20056;-56
2022/08/09 12:26:51;;;;;;;2.28;1.20;;;25.30;95.10;;;;;;5065494;28;20047;-55
2022/08/09 12:29:19;;;;;;;2.55;1.00;;;25.70;96.00;;;;;;5084334;28;20087;-56
2022/08/09 12:31:47;;;;;;;1.63;0.90;;;25.60;95.60;;;;;;5068195;28;20691;-56
2022/08/09 12:34:14;;;;;;;1.05;0.95;;;25.60;95.30;;;;;;5066214;28;20540;-57
2022/08/09 12:36:54;;;;;;;1.95;1.40;;;25.40;95.00;;;;;;5084849;28;20125;-54
2022/08/09 12:39:20;;;;;;;2.45;1.00;;;25.40;94.70;;;;;;5084511;28;20040;-56
2022/08/09 12:41:46;;;;;;;1.70;0.98;;;25.30;94.90;;;;;;5079441;28;20267;-56
2022/08/09 12:44:13;;;;;;;2.30;0.90;;;25.30;94.50;;;;;;5065656;28;20577;-57
2022/08/09 12:46:45;;;;;;;1.10;0.90;;;25.30;94.90;;;;;;5083714;28;20494;-57
2022/08/09 12:49:12;;;;;;;4.15;1.25;;;25.50;95.10;;;;;;5084005;28;20083;-55
2022/08/09 12:51:38;;;;;;;1.77;0.90;;;25.40;94.80;;;;;;5065190;28;20052;-56
2022/08/09 12:54:05;;;;;;;1.08;0.80;;;25.50;95.10;;;;;;5065468;28;20110;-56
2022/08/09 12:56:45;;;;;;;1.40;0.98;;;25.50;94.20;;;;;;5065728;28;20056;-56